createdAt,value
2023-05-25T00:01:13.390Z,44.40
2023-05-25T00:03:43.706Z,44.30
2023-05-25T00:06:10.943Z,44.30
2023-05-25T00:08:42.542Z,44.30
2023-05-25T00:11:09.396Z,44.20
2023-05-25T00:13:36.266Z,44.40
2023-05-25T00:16:06.387Z,44.20
2023-05-25T00:18:38.046Z,44.10
2023-05-25T00:21:08.434Z,44.00
2023-05-25T00:23:35.436Z,44.00
2023-05-25T00:26:06.330Z,43.90
2023-05-25T00:28:38.067Z,43.90
2023-05-25T00:31:05.100Z,43.90
2023-05-25T00:33:32.127Z,43.80
2023-05-25T00:36:00.220Z,43.70
2023-05-25T00:38:27.135Z,43.60
2023-05-25T00:40:59.390Z,43.60
2023-05-25T00:43:26.339Z,43.50
2023-05-25T00:45:54.084Z,43.60
2023-05-25T00:48:20.984Z,43.60
2023-05-25T00:50:48.120Z,43.50
2023-05-25T00:53:19.691Z,43.40
2023-05-25T00:55:52.327Z,43.40
2023-05-25T00:58:24.897Z,43.50
2023-05-25T01:00:56.290Z,43.40
2023-05-25T01:03:36.173Z,43.30
2023-05-25T01:06:08.785Z,43.20
2023-05-25T01:08:37.428Z,43.20
2023-05-25T01:11:08.368Z,43.10
2023-05-25T01:13:38.264Z,43.10
2023-05-25T01:16:14.050Z,43.10
2023-05-25T01:18:41.960Z,43.20
2023-05-25T01:21:23.248Z,43.10
2023-05-25T01:24:05.937Z,42.90
2023-05-25T01:29:03.471Z,43.10
2023-05-25T01:31:30.740Z,43.10
2023-05-25T01:34:02.592Z,43.10
2023-05-25T01:36:29.636Z,43.10
2023-05-25T01:38:56.726Z,43.10
2023-05-25T01:41:23.618Z,43.00
2023-05-25T01:43:56.004Z,43.00
2023-05-25T01:46:39.267Z,43.00
2023-05-25T01:49:23.523Z,42.90
2023-05-25T01:52:33.432Z,42.90
2023-05-25T01:55:11.030Z,42.70
2023-05-25T01:57:42.651Z,42.80
2023-05-25T02:00:13.717Z,42.90
2023-05-25T02:02:46.034Z,42.80
2023-05-25T02:05:15.657Z,42.90
2023-05-25T02:07:42.636Z,42.90
2023-05-25T02:10:14.538Z,42.90
2023-05-25T02:12:41.491Z,42.80
2023-05-25T02:15:15.691Z,42.80
2023-05-25T02:17:44.933Z,42.70
2023-05-25T02:20:12.751Z,42.80
2023-05-25T02:22:39.741Z,42.80
2023-05-25T02:25:09.066Z,42.80
2023-05-25T02:27:38.741Z,42.80
2023-05-25T02:30:07.849Z,43.40
2023-05-25T02:32:37.567Z,42.80
2023-05-25T02:35:07.513Z,42.70
2023-05-25T02:37:36.678Z,42.70
2023-05-25T02:40:05.173Z,42.80
2023-05-25T02:42:34.372Z,42.70
2023-05-25T02:45:01.282Z,42.80
2023-05-25T02:47:30.638Z,42.80
2023-05-25T02:49:59.664Z,42.70
2023-05-25T02:52:26.529Z,42.70
2023-05-25T02:54:53.530Z,42.80
2023-05-25T02:57:23.335Z,42.80
2023-05-25T02:59:54.952Z,42.80
2023-05-25T03:02:25.566Z,42.80
2023-05-25T03:04:53.895Z,42.80
2023-05-25T03:07:25.506Z,42.80
2023-05-25T03:09:52.906Z,42.80
2023-05-25T03:12:19.919Z,42.80
2023-05-25T03:14:49.322Z,42.90
2023-05-25T03:17:16.275Z,42.90
2023-05-25T03:19:45.663Z,43.00
2023-05-25T03:22:12.549Z,42.90
2023-05-25T03:24:42.040Z,43.00
2023-05-25T03:27:09.106Z,43.00
2023-05-25T03:29:36.068Z,43.10
2023-05-25T03:32:03.189Z,43.10
2023-05-25T03:34:30.260Z,43.10
2023-05-25T03:36:57.165Z,43.20
2023-05-25T03:39:24.112Z,43.30
2023-05-25T03:41:53.601Z,43.30
2023-05-25T03:44:20.530Z,43.30
2023-05-25T03:46:47.424Z,43.50
2023-05-25T03:49:14.466Z,43.50
2023-05-25T03:51:42.814Z,43.50
2023-05-25T03:54:09.780Z,43.50
2023-05-25T03:56:36.706Z,43.60
2023-05-25T03:59:05.906Z,43.70
2023-05-25T04:01:38.178Z,43.80
2023-05-25T04:04:06.611Z,43.80
2023-05-25T04:06:36.983Z,43.80
2023-05-25T04:09:05.004Z,43.80
2023-05-25T04:11:31.963Z,43.90
2023-05-25T04:13:59.933Z,43.90
2023-05-25T04:16:27.122Z,44.00
2023-05-25T04:18:56.311Z,44.10
2023-05-25T04:21:25.459Z,44.10
2023-05-25T04:23:54.898Z,44.10
2023-05-25T04:26:26.336Z,44.30
2023-05-25T04:28:55.834Z,44.50
2023-05-25T04:31:27.843Z,44.60
2023-05-25T04:33:56.158Z,44.90
2023-05-25T04:36:23.769Z,44.90
2023-05-25T04:38:54.840Z,45.00
2023-05-25T04:41:25.838Z,45.10
2023-05-25T04:44:09.091Z,45.30
2023-05-25T04:46:40.728Z,45.30
2023-05-25T04:49:10.629Z,45.30
2023-05-25T04:51:44.971Z,45.40
2023-05-25T04:54:11.893Z,45.40
2023-05-25T04:56:43.978Z,45.40
2023-05-25T04:59:11.331Z,45.60
2023-05-25T05:01:44.578Z,45.70
2023-05-25T05:04:11.879Z,45.80
2023-05-25T05:06:44.335Z,45.80
2023-05-25T05:09:14.355Z,45.80
2023-05-25T05:11:41.263Z,46.00
2023-05-25T05:14:12.745Z,46.00
2023-05-25T05:16:44.430Z,45.90
2023-05-25T05:19:11.461Z,46.00
2023-05-25T05:21:38.538Z,46.00
2023-05-25T05:24:05.801Z,45.90
2023-05-25T05:26:44.219Z,46.00
2023-05-25T05:29:20.000Z,46.00
2023-05-25T05:31:47.017Z,46.00
2023-05-25T05:34:14.047Z,46.00
2023-05-25T05:36:56.473Z,46.00
2023-05-25T05:39:24.761Z,46.00
2023-05-25T05:41:54.664Z,46.10
2023-05-25T05:44:29.043Z,46.10
2023-05-25T05:47:01.158Z,46.20
2023-05-25T05:49:32.174Z,46.30
2023-05-25T05:51:59.362Z,46.40
2023-05-25T05:54:28.049Z,46.40
2023-05-25T05:56:55.167Z,46.50
2023-05-25T05:59:22.752Z,46.70
2023-05-25T06:01:49.728Z,46.80
2023-05-25T06:04:19.243Z,46.90
2023-05-25T06:06:46.307Z,47.00
2023-05-25T06:09:18.128Z,47.00
2023-05-25T06:11:48.116Z,47.00
2023-05-25T06:14:17.741Z,47.00
2023-05-25T06:16:47.060Z,47.10
2023-05-25T06:19:16.656Z,47.10
2023-05-25T06:21:46.651Z,47.10
2023-05-25T06:24:16.003Z,47.10
2023-05-25T06:26:42.949Z,47.20
2023-05-25T06:29:09.949Z,47.20
2023-05-25T06:31:37.078Z,47.30
2023-05-25T06:34:06.426Z,47.40
2023-05-25T06:36:33.365Z,47.50
2023-05-25T06:39:00.293Z,47.50
2023-05-25T06:41:30.867Z,47.50
2023-05-25T06:43:57.800Z,47.50
2023-05-25T06:46:32.877Z,47.50
2023-05-25T06:49:03.609Z,47.40
2023-05-25T06:51:31.167Z,47.50
2023-05-25T06:54:00.396Z,47.40
2023-05-25T06:56:28.019Z,47.40
2023-05-25T06:58:57.121Z,47.30
2023-05-25T07:01:24.105Z,47.90
2023-05-25T07:03:53.102Z,47.30
2023-05-25T07:06:23.727Z,47.30
2023-05-25T07:08:55.718Z,47.30
2023-05-25T07:11:23.305Z,47.40
2023-05-25T07:13:54.680Z,48.00
2023-05-25T07:16:21.686Z,47.40
2023-05-25T07:18:51.227Z,47.40
2023-05-25T07:21:18.202Z,47.50
2023-05-25T07:23:45.170Z,47.60
2023-05-25T07:26:13.650Z,47.60
2023-05-25T07:28:40.733Z,47.80
2023-05-25T07:31:12.055Z,47.80
2023-05-25T07:33:41.330Z,47.90
2023-05-25T07:36:09.936Z,48.00
2023-05-25T07:38:37.234Z,48.20
2023-05-25T07:41:04.215Z,48.40
2023-05-25T07:43:33.249Z,48.40
2023-05-25T07:46:04.145Z,48.40
2023-05-25T07:48:33.664Z,48.40
2023-05-25T07:51:00.816Z,48.40
2023-05-25T07:53:29.916Z,48.50
2023-05-25T07:55:59.829Z,48.60
2023-05-25T07:58:26.760Z,48.70
2023-05-25T08:00:53.859Z,48.70
2023-05-25T08:03:31.810Z,48.80
2023-05-25T08:06:09.486Z,48.90
2023-05-25T08:08:37.327Z,49.00
2023-05-25T08:11:04.348Z,49.00
2023-05-25T08:13:31.488Z,49.00
2023-05-25T08:16:05.450Z,49.10
2023-05-25T08:18:32.445Z,49.10
2023-05-25T08:20:59.471Z,49.20
2023-05-25T08:23:26.349Z,49.20
2023-05-25T08:25:58.332Z,49.30
2023-05-25T08:28:25.244Z,49.50
2023-05-25T08:30:54.341Z,49.60
2023-05-25T08:33:21.535Z,49.60
2023-05-25T08:35:50.419Z,49.70
2023-05-25T08:38:19.946Z,49.70
2023-05-25T08:40:56.054Z,49.60
2023-05-25T08:43:26.008Z,49.70
2023-05-25T08:45:58.370Z,49.70
2023-05-25T08:48:39.920Z,49.80
2023-05-25T08:51:11.715Z,49.90
2023-05-25T08:53:41.572Z,49.90
2023-05-25T08:56:18.455Z,49.80
2023-05-25T08:58:58.192Z,49.80
2023-05-25T09:01:29.038Z,49.70
2023-05-25T09:04:00.208Z,49.60
2023-05-25T09:06:28.270Z,50.30
2023-05-25T09:08:55.360Z,49.60
2023-05-25T09:11:36.098Z,49.60
2023-05-25T09:14:04.945Z,49.60
2023-05-25T09:16:37.246Z,49.60
2023-05-25T09:19:06.880Z,49.60
2023-05-25T09:21:33.841Z,49.60
2023-05-25T09:24:01.645Z,49.60
2023-05-25T09:26:28.731Z,49.60
2023-05-25T09:29:00.504Z,49.60
2023-05-25T09:31:31.629Z,49.50
2023-05-25T09:34:01.417Z,49.40
2023-05-25T09:36:28.455Z,49.50
2023-05-25T09:38:56.614Z,49.30
2023-05-25T09:41:27.537Z,49.40
2023-05-25T09:44:09.759Z,49.40
2023-05-25T09:46:41.212Z,49.50
2023-05-25T09:49:11.535Z,49.50
2023-05-25T09:51:40.886Z,49.50
2023-05-25T09:54:12.981Z,49.50
2023-05-25T09:56:43.063Z,49.50
2023-05-25T09:59:12.515Z,49.50
2023-05-25T10:01:45.010Z,49.50
2023-05-25T10:04:16.265Z,49.60
2023-05-25T10:06:45.826Z,49.50
2023-05-25T10:09:14.649Z,49.50
2023-05-25T10:11:46.291Z,49.30
2023-05-25T10:14:33.356Z,49.30
2023-05-25T10:17:06.956Z,49.20
2023-05-25T10:19:42.810Z,49.30
2023-05-25T10:22:50.165Z,49.70
2023-05-25T10:25:28.888Z,50.00
2023-05-25T10:28:00.873Z,50.10
2023-05-25T10:30:28.279Z,50.00
2023-05-25T10:32:59.235Z,50.20
2023-05-25T10:35:26.491Z,50.20
2023-05-25T10:37:54.867Z,50.30
2023-05-25T10:40:23.139Z,50.20
2023-05-25T10:42:51.857Z,49.90
2023-05-25T10:45:24.747Z,49.90
2023-05-25T10:47:52.012Z,49.60
2023-05-25T10:50:29.652Z,49.40
2023-05-25T10:53:16.125Z,49.10
2023-05-25T10:55:52.211Z,48.60
2023-05-25T10:58:21.663Z,48.80
2023-05-25T11:01:06.941Z,48.90
2023-05-25T11:03:55.706Z,48.80
2023-05-25T11:06:46.667Z,48.60
2023-05-25T11:09:27.552Z,48.60
2023-05-25T11:11:56.170Z,49.00
2023-05-25T11:14:33.211Z,48.80
2023-05-25T11:17:14.795Z,48.50
2023-05-25T11:19:52.464Z,48.70
2023-05-25T11:22:31.001Z,48.20
2023-05-25T11:25:02.341Z,48.20
2023-05-25T11:27:32.719Z,48.00
2023-05-25T11:30:00.506Z,47.70
2023-05-25T11:32:28.968Z,47.60
2023-05-25T11:34:58.530Z,47.50
2023-05-25T11:37:31.387Z,47.40
2023-05-25T11:39:58.648Z,47.20
2023-05-25T11:42:26.526Z,47.20
2023-05-25T11:44:56.054Z,47.00
2023-05-25T11:47:30.191Z,46.90
2023-05-25T11:49:58.688Z,47.10
2023-05-25T11:52:32.626Z,46.80
2023-05-25T11:54:59.627Z,46.60
2023-05-25T11:57:28.832Z,46.40
2023-05-25T12:00:00.331Z,46.30
2023-05-25T12:02:29.885Z,46.40
2023-05-25T12:05:03.619Z,47.10
2023-05-25T12:07:34.919Z,46.30
2023-05-25T12:10:09.203Z,46.20
2023-05-25T12:12:44.833Z,46.40
2023-05-25T12:15:18.250Z,46.20
2023-05-25T12:17:47.594Z,46.10
2023-05-25T12:20:16.970Z,46.10
2023-05-25T12:22:47.562Z,46.10
2023-05-25T12:25:21.974Z,46.00
2023-05-25T12:27:49.073Z,46.20
2023-05-25T12:30:16.756Z,46.30
2023-05-25T12:33:03.843Z,47.00
2023-05-25T12:35:53.642Z,46.40
2023-05-25T12:38:24.050Z,46.30
2023-05-25T12:41:07.521Z,46.10
2023-05-25T12:43:44.186Z,45.50
2023-05-25T12:46:11.649Z,45.70
2023-05-25T12:48:38.709Z,45.80
2023-05-25T12:51:09.944Z,45.80
2023-05-25T12:53:52.661Z,45.40
2023-05-25T12:56:22.669Z,45.60
2023-05-25T12:58:49.611Z,45.50
2023-05-25T13:01:19.742Z,45.10
2023-05-25T13:03:46.677Z,44.80
2023-05-25T13:06:16.232Z,44.60
2023-05-25T13:08:43.180Z,44.60
2023-05-25T13:11:10.205Z,44.70
2023-05-25T13:13:37.437Z,44.90
2023-05-25T13:16:04.595Z,45.00
2023-05-25T13:18:32.154Z,44.80
2023-05-25T13:20:59.416Z,44.80
2023-05-25T13:23:28.968Z,44.60
2023-05-25T13:25:55.906Z,44.60
2023-05-25T13:28:27.659Z,44.70
2023-05-25T13:30:54.664Z,44.70
2023-05-25T13:33:23.962Z,44.70
2023-05-25T13:36:07.839Z,44.70
2023-05-25T13:38:38.327Z,44.70
2023-05-25T13:41:08.341Z,44.60
2023-05-25T13:43:35.298Z,44.40
2023-05-25T13:46:10.037Z,44.40
2023-05-25T13:48:47.372Z,44.30
2023-05-25T13:51:17.477Z,44.30
2023-05-25T13:53:48.922Z,44.10
2023-05-25T13:56:20.502Z,44.20
2023-05-25T13:58:47.418Z,44.10
2023-05-25T14:01:14.360Z,43.90
2023-05-25T14:03:41.516Z,43.80
2023-05-25T14:06:08.557Z,43.60
2023-05-25T14:08:35.478Z,43.60
2023-05-25T14:11:04.896Z,43.70
2023-05-25T14:13:36.169Z,43.70
2023-05-25T14:16:03.940Z,43.60
2023-05-25T14:18:30.940Z,43.60
2023-05-25T14:20:58.085Z,43.60
2023-05-25T14:23:25.051Z,43.30
2023-05-25T14:25:51.998Z,43.10
2023-05-25T14:28:18.972Z,43.00
2023-05-25T14:30:48.894Z,43.00
2023-05-25T14:33:18.263Z,43.00
2023-05-25T14:35:45.457Z,42.90
2023-05-25T14:38:12.715Z,43.00
2023-05-25T14:40:39.679Z,43.00
2023-05-25T14:43:06.594Z,43.00
2023-05-25T14:45:38.119Z,42.90
2023-05-25T14:48:16.047Z,42.80
2023-05-25T14:50:44.656Z,42.80
2023-05-25T14:53:13.981Z,43.00
2023-05-25T14:55:43.252Z,42.80
2023-05-25T14:58:11.122Z,42.70
2023-05-25T15:00:42.662Z,42.70
2023-05-25T15:03:11.976Z,42.60
2023-05-25T15:05:38.944Z,42.60
2023-05-25T15:08:08.277Z,42.70
2023-05-25T15:10:37.422Z,42.60
2023-05-25T15:13:04.330Z,42.70
2023-05-25T15:15:31.259Z,42.60
2023-05-25T15:17:58.235Z,42.50
2023-05-25T15:20:27.307Z,42.50
2023-05-25T15:22:54.356Z,42.50
2023-05-25T15:25:35.086Z,42.50
2023-05-25T15:28:03.398Z,42.40
2023-05-25T15:30:30.484Z,42.50
2023-05-25T15:32:57.418Z,42.40
2023-05-25T15:35:30.941Z,42.50
2023-05-25T15:38:01.772Z,42.50
2023-05-25T15:40:28.848Z,42.40
2023-05-25T15:42:58.259Z,42.40
2023-05-25T15:45:26.195Z,43.10
2023-05-25T15:47:55.982Z,42.40
2023-05-25T15:50:25.022Z,42.40
2023-05-25T15:52:52.028Z,42.40
2023-05-25T15:55:19.046Z,42.40
2023-05-25T15:57:45.983Z,42.60
2023-05-25T16:00:17.499Z,42.60
2023-05-25T16:02:44.532Z,42.80
2023-05-25T16:05:11.481Z,42.90
2023-05-25T16:07:38.446Z,42.80
2023-05-25T16:10:06.126Z,42.80
2023-05-25T16:12:37.591Z,42.90
2023-05-25T16:15:04.991Z,43.00
2023-05-25T16:17:33.925Z,43.10
2023-05-25T16:20:00.940Z,43.10
2023-05-25T16:22:27.926Z,43.10
2023-05-25T16:24:57.206Z,43.10
2023-05-25T16:27:24.260Z,43.10
2023-05-25T16:29:51.293Z,43.10
2023-05-25T16:32:18.276Z,43.10
2023-05-25T16:34:47.320Z,43.10
2023-05-25T16:37:14.250Z,43.10
2023-05-25T16:39:41.151Z,43.10
2023-05-25T16:42:10.680Z,43.30
2023-05-25T16:44:40.093Z,43.30
2023-05-25T16:47:07.089Z,43.30
2023-05-25T16:49:34.043Z,43.30
2023-05-25T16:52:03.542Z,43.30
2023-05-25T16:54:33.178Z,43.40
2023-05-25T16:57:03.141Z,43.40
2023-05-25T16:59:30.318Z,43.40
2023-05-25T17:01:57.616Z,43.50
2023-05-25T17:04:24.658Z,44.00
2023-05-25T17:06:51.505Z,43.40
2023-05-25T17:09:18.443Z,43.50
2023-05-25T17:11:45.359Z,43.50
2023-05-25T17:14:12.728Z,43.50
2023-05-25T17:16:41.973Z,43.40
2023-05-25T17:19:11.222Z,43.30
2023-05-25T17:21:38.476Z,43.20
2023-05-25T17:24:08.651Z,43.40
2023-05-25T17:26:35.596Z,43.40
2023-05-25T17:29:02.600Z,43.30
2023-05-25T17:31:29.481Z,44.00
2023-05-25T17:33:56.823Z,43.30
2023-05-25T17:36:26.163Z,43.40
2023-05-25T17:38:53.162Z,43.40
2023-05-25T17:41:20.062Z,43.40
2023-05-25T17:43:49.426Z,43.30
2023-05-25T17:46:17.465Z,43.40
2023-05-25T17:48:46.706Z,43.50
2023-05-25T17:51:16.437Z,43.60
2023-05-25T17:53:45.581Z,43.50
2023-05-25T17:56:12.761Z,43.90
2023-05-25T17:58:39.656Z,43.80
2023-05-25T18:01:06.752Z,43.90
2023-05-25T18:03:33.871Z,44.00
2023-05-25T18:06:05.596Z,44.10
2023-05-25T18:08:32.505Z,44.00
2023-05-25T18:10:59.451Z,44.10
2023-05-25T18:13:26.509Z,44.10
2023-05-25T18:15:53.690Z,44.10
2023-05-25T18:18:23.219Z,44.20
2023-05-25T18:20:52.453Z,44.30
2023-05-25T18:23:22.447Z,44.50
2023-05-25T18:25:52.711Z,44.70
2023-05-25T18:28:19.679Z,44.60
2023-05-25T18:30:46.670Z,44.60
2023-05-25T18:33:13.836Z,44.60
2023-05-25T18:35:40.804Z,44.60
2023-05-25T18:38:10.072Z,44.60
2023-05-25T18:40:37.050Z,44.80
2023-05-25T18:43:04.633Z,45.00
2023-05-25T18:45:34.756Z,45.00
2023-05-25T18:48:07.531Z,45.10
2023-05-25T18:50:39.322Z,45.10
2023-05-25T18:53:10.678Z,45.10
2023-05-25T18:55:40.450Z,45.10
2023-05-25T18:58:12.252Z,45.10
2023-05-25T19:00:41.486Z,45.20
2023-05-25T19:03:08.529Z,45.30
2023-05-25T19:05:35.637Z,45.40
2023-05-25T19:08:04.897Z,45.50
2023-05-25T19:10:31.819Z,45.60
2023-05-25T19:12:58.724Z,45.60
2023-05-25T19:15:27.747Z,45.80
2023-05-25T19:17:57.296Z,45.90
2023-05-25T19:20:24.565Z,46.10
2023-05-25T19:22:53.635Z,46.00
2023-05-25T19:25:20.681Z,46.20
2023-05-25T19:27:47.646Z,46.30
2023-05-25T19:30:14.685Z,46.30
2023-05-25T19:32:44.170Z,46.40
2023-05-25T19:35:13.272Z,46.50
2023-05-25T19:37:41.303Z,47.20
2023-05-25T19:40:12.532Z,46.60
2023-05-25T19:42:39.393Z,46.80
2023-05-25T19:45:09.024Z,46.90
2023-05-25T19:47:36.040Z,46.80
2023-05-25T19:50:05.408Z,46.80
2023-05-25T19:52:32.345Z,46.90
2023-05-25T19:54:59.289Z,47.00
2023-05-25T19:57:27.584Z,47.20
2023-05-25T19:59:59.101Z,47.40
2023-05-25T20:02:29.712Z,47.50
2023-05-25T20:04:59.102Z,47.70
2023-05-25T20:07:28.664Z,47.90
2023-05-25T20:09:57.759Z,47.90
2023-05-25T20:12:24.752Z,47.90
2023-05-25T20:14:51.914Z,48.00
2023-05-25T20:17:21.456Z,48.10
2023-05-25T20:19:53.924Z,48.10
2023-05-25T20:22:21.400Z,48.20
2023-05-25T20:24:51.257Z,48.40
2023-05-25T20:27:18.192Z,48.50
2023-05-25T20:29:49.979Z,48.40
2023-05-25T20:32:16.883Z,48.50
2023-05-25T20:34:46.855Z,48.50
2023-05-25T20:37:13.805Z,48.40
2023-05-25T20:39:43.361Z,48.50
2023-05-25T20:42:14.777Z,48.60
2023-05-25T20:44:43.783Z,48.70
2023-05-25T20:47:10.764Z,48.80
2023-05-25T20:49:40.243Z,48.80
2023-05-25T20:52:07.227Z,48.90
2023-05-25T20:54:37.331Z,48.90
2023-05-25T20:57:04.937Z,49.00
2023-05-25T20:59:34.393Z,48.90
2023-05-25T21:02:02.869Z,48.90
2023-05-25T21:04:31.850Z,48.90
2023-05-25T21:06:59.051Z,48.90
2023-05-25T21:09:26.134Z,48.90
2023-05-25T21:11:53.093Z,48.90
2023-05-25T21:14:22.093Z,48.90
2023-05-25T21:16:50.076Z,48.80
2023-05-25T21:19:17.326Z,48.90
2023-05-25T21:21:44.451Z,48.90
2023-05-25T21:24:11.455Z,48.80
2023-05-25T21:26:41.722Z,48.80
2023-05-25T21:29:08.731Z,48.90
2023-05-25T21:31:38.032Z,48.90
2023-05-25T21:34:07.280Z,49.00
2023-05-25T21:36:34.206Z,48.90
2023-05-25T21:39:05.700Z,49.00
2023-05-25T21:41:32.622Z,49.10
2023-05-25T21:43:59.535Z,49.10
2023-05-25T21:46:26.587Z,49.20
2023-05-25T21:48:53.494Z,49.30
2023-05-25T21:51:20.559Z,49.30
2023-05-25T21:53:47.423Z,49.30
2023-05-25T21:56:14.417Z,49.40
2023-05-25T21:58:43.686Z,49.40
2023-05-25T22:01:10.970Z,49.40
2023-05-25T22:03:38.100Z,49.40
2023-05-25T22:06:05.244Z,49.50
2023-05-25T22:08:40.506Z,49.50
2023-05-25T22:11:07.694Z,49.40
2023-05-25T22:13:37.033Z,49.40
2023-05-25T22:16:04.036Z,49.40
2023-05-25T22:18:33.580Z,49.50
2023-05-25T22:21:01.497Z,49.60
2023-05-25T22:23:28.470Z,49.70
2023-05-25T22:25:55.968Z,49.70
2023-05-25T22:28:22.875Z,49.80
2023-05-25T22:30:50.086Z,49.80
2023-05-25T22:33:17.094Z,49.90
2023-05-25T22:35:44.605Z,49.90
2023-05-25T22:38:14.210Z,50.00
2023-05-25T22:40:47.378Z,50.00
2023-05-25T22:43:14.954Z,50.00
2023-05-25T22:45:42.133Z,50.10
2023-05-25T22:48:09.593Z,50.10
2023-05-25T22:50:38.086Z,50.90
2023-05-25T22:53:05.307Z,50.30
2023-05-25T22:55:32.668Z,50.30
2023-05-25T22:58:02.079Z,50.40
2023-05-25T23:00:28.967Z,50.40
2023-05-25T23:02:56.175Z,50.50
2023-05-25T23:05:25.754Z,50.50
2023-05-25T23:07:55.589Z,50.50
2023-05-25T23:10:22.508Z,50.60
2023-05-25T23:12:50.382Z,50.50
2023-05-25T23:15:18.537Z,50.50
2023-05-25T23:17:45.613Z,50.50
2023-05-25T23:20:12.944Z,50.60
2023-05-25T23:22:40.592Z,50.60
2023-05-25T23:25:08.443Z,50.70
2023-05-25T23:27:35.474Z,50.70
2023-05-25T23:30:06.015Z,50.70
2023-05-25T23:32:38.502Z,50.70
2023-05-25T23:35:09.430Z,50.80
2023-05-25T23:37:39.410Z,50.70
2023-05-25T23:40:07.846Z,50.80
2023-05-25T23:42:39.761Z,50.80
2023-05-25T23:45:10.258Z,51.00
2023-05-25T23:47:39.452Z,51.00
2023-05-25T23:50:06.936Z,51.10
2023-05-25T23:52:36.105Z,51.80
2023-05-25T23:55:03.703Z,51.10
2023-05-25T23:57:33.207Z,51.10
